createdAt,value
2018-08-10T00:02:21.557Z,79.56
2018-08-10T00:04:50.423Z,80.17
2018-08-10T00:07:19.256Z,80.64
2018-08-10T00:09:48.107Z,80.51
2018-08-10T00:12:16.920Z,80.92
2018-08-10T00:14:45.782Z,80.88
2018-08-10T00:17:14.702Z,81.07
2018-08-10T00:23:21.591Z,80.58
2018-08-10T00:25:50.492Z,80.10
2018-08-10T00:28:19.369Z,80.22
2018-08-10T00:30:48.259Z,80.64
2018-08-10T00:33:17.090Z,80.71
2018-08-10T00:35:45.953Z,80.74
2018-08-10T00:38:14.827Z,80.62
2018-08-10T00:40:43.685Z,80.65
2018-08-10T00:43:20.000Z,79.93
2018-08-10T00:45:48.875Z,79.79
2018-08-10T00:48:17.757Z,79.91
2018-08-10T00:50:46.586Z,79.66
2018-08-10T00:53:15.425Z,79.47
2018-08-10T00:55:45.496Z,79.85
2018-08-10T00:58:14.350Z,79.80
2018-08-10T01:00:43.239Z,79.28
2018-08-10T01:03:12.225Z,77.62
2018-08-10T01:05:41.070Z,79.08
2018-08-10T01:08:09.936Z,79.16
2018-08-10T01:10:38.807Z,78.83
2018-08-10T01:13:07.754Z,79.15
2018-08-10T01:15:36.578Z,79.36
2018-08-10T01:18:05.577Z,79.62
2018-08-10T01:20:34.453Z,78.54
2018-08-10T01:23:06.239Z,79.50
2018-08-10T01:25:35.123Z,79.51
2018-08-10T01:28:04.952Z,79.57
2018-08-10T01:30:34.832Z,79.29
2018-08-10T01:33:03.721Z,79.13
2018-08-10T01:35:32.819Z,77.73
2018-08-10T01:38:02.662Z,78.75
2018-08-10T01:40:31.533Z,78.71
2018-08-10T01:43:00.377Z,78.94
2018-08-10T01:45:29.199Z,79.34
2018-08-10T01:47:58.099Z,79.48
2018-08-10T01:50:26.978Z,79.12
2018-08-10T01:52:55.793Z,79.36
2018-08-10T01:55:24.665Z,79.53
2018-08-10T01:57:53.546Z,79.45
2018-08-10T02:00:22.433Z,79.24
2018-08-10T02:02:51.250Z,78.14
2018-08-10T02:05:20.112Z,79.49
2018-08-10T02:07:48.955Z,79.69
2018-08-10T02:10:20.691Z,79.40
2018-08-10T02:12:53.754Z,79.96
2018-08-10T02:15:22.631Z,79.78
2018-08-10T02:17:51.513Z,80.26
2018-08-10T02:20:21.732Z,80.13
2018-08-10T02:22:50.709Z,80.25
2018-08-10T02:25:20.825Z,80.16
2018-08-10T02:27:50.348Z,80.43
2018-08-10T02:30:20.553Z,80.37
2018-08-10T02:32:50.197Z,80.35
2018-08-10T02:35:19.031Z,79.13
2018-08-10T02:37:47.895Z,80.10
2018-08-10T02:40:18.915Z,79.99
2018-08-10T02:42:48.724Z,79.98
2018-08-10T02:45:17.899Z,79.76
2018-08-10T02:47:47.301Z,79.68
2018-08-10T02:50:16.162Z,80.19
2018-08-10T02:52:45.309Z,80.21
2018-08-10T02:55:14.601Z,80.14
2018-08-10T02:57:43.562Z,80.40
2018-08-10T03:00:17.095Z,80.11
2018-08-10T03:02:46.374Z,80.26
2018-08-10T03:05:15.254Z,80.19
2018-08-10T03:07:44.239Z,80.13
2018-08-10T03:10:13.806Z,79.92
2018-08-10T03:12:42.624Z,79.92
2018-08-10T03:15:13.084Z,80.26
2018-08-10T03:17:42.270Z,80.01
2018-08-10T03:20:11.485Z,79.83
2018-08-10T03:22:40.692Z,80.36
2018-08-10T03:25:10.671Z,80.14
2018-08-10T03:27:39.581Z,80.53
2018-08-10T03:30:09.516Z,80.18
2018-08-10T03:32:38.731Z,79.55
2018-08-10T03:35:07.597Z,80.20
2018-08-10T03:37:37.025Z,80.33
2018-08-10T03:40:08.234Z,80.67
2018-08-10T03:42:37.071Z,80.76
2018-08-10T03:45:05.958Z,80.54
2018-08-10T03:47:34.854Z,81.29
2018-08-10T03:50:04.053Z,81.32
2018-08-10T03:52:32.886Z,79.74
2018-08-10T03:55:01.757Z,80.89
2018-08-10T03:57:30.584Z,80.77
2018-08-10T03:59:59.433Z,80.95
2018-08-10T04:02:28.283Z,81.32
2018-08-10T04:04:57.129Z,81.03
2018-08-10T04:07:25.973Z,81.67
2018-08-10T04:09:54.822Z,81.74
2018-08-10T04:12:23.798Z,81.88
2018-08-10T04:14:52.660Z,82.29
2018-08-10T04:17:24.054Z,82.25
2018-08-10T04:19:53.909Z,81.97
2018-08-10T04:22:23.793Z,82.22
2018-08-10T04:24:52.803Z,82.50
2018-08-10T04:27:21.971Z,82.59
2018-08-10T04:29:50.977Z,82.54
2018-08-10T04:32:20.176Z,82.35
2018-08-10T04:34:49.081Z,82.17
2018-08-10T04:37:18.259Z,82.36
2018-08-10T04:39:47.118Z,82.51
2018-08-10T04:42:16.040Z,82.17
2018-08-10T04:44:44.900Z,82.44
2018-08-10T04:47:13.767Z,82.50
2018-08-10T04:49:42.585Z,82.25
2018-08-10T04:52:11.443Z,82.62
2018-08-10T04:54:41.789Z,82.33
2018-08-10T04:57:10.675Z,82.19
2018-08-10T04:59:39.527Z,81.98
2018-08-10T05:02:08.627Z,82.02
2018-08-10T05:04:37.497Z,82.00
2018-08-10T05:07:06.372Z,81.92
2018-08-10T05:09:35.264Z,81.83
2018-08-10T05:12:04.153Z,81.90
2018-08-10T05:14:33.004Z,81.98
2018-08-10T05:17:02.036Z,81.95
2018-08-10T05:19:30.900Z,80.68
2018-08-10T05:21:59.788Z,82.01
2018-08-10T05:24:28.602Z,82.10
2018-08-10T05:26:57.485Z,79.98
2018-08-10T05:29:26.359Z,81.84
2018-08-10T05:31:55.182Z,81.56
2018-08-10T05:34:24.055Z,81.24
2018-08-10T05:36:52.922Z,81.35
2018-08-10T05:39:21.847Z,81.01
2018-08-10T05:41:50.710Z,81.21
2018-08-10T05:44:19.581Z,81.36
2018-08-10T05:46:48.504Z,80.33
2018-08-10T05:49:17.301Z,80.16
2018-08-10T05:51:46.140Z,80.72
2018-08-10T05:54:15.004Z,80.45
2018-08-10T05:56:43.846Z,80.08
2018-08-10T05:59:12.735Z,80.54
2018-08-10T06:01:41.654Z,79.69
2018-08-10T06:04:10.624Z,78.12
2018-08-10T06:06:39.407Z,79.11
2018-08-10T06:09:13.595Z,76.97
2018-08-10T06:11:43.296Z,76.08
2018-08-10T06:14:12.889Z,77.01
2018-08-10T06:16:41.743Z,76.90
2018-08-10T06:19:10.580Z,77.84
2018-08-10T06:21:39.752Z,77.13
2018-08-10T06:24:08.524Z,76.62
2018-08-10T06:26:37.408Z,77.58
2018-08-10T06:29:06.281Z,75.88
2018-08-10T06:31:35.175Z,76.01
2018-08-10T06:34:04.118Z,75.47
2018-08-10T06:36:32.814Z,71.46
2018-08-10T06:39:01.697Z,72.77
2018-08-10T06:41:30.520Z,72.83
2018-08-10T06:43:59.582Z,72.57
2018-08-10T06:46:29.974Z,73.04
2018-08-10T06:48:58.829Z,72.48
2018-08-10T06:51:27.687Z,72.53
2018-08-10T06:53:56.687Z,71.29
2018-08-10T06:56:25.571Z,68.37
2018-08-10T06:58:55.425Z,68.75
2018-08-10T07:01:24.230Z,68.81
2018-08-10T07:03:53.028Z,69.29
2018-08-10T07:06:21.983Z,70.15
2018-08-10T07:08:50.873Z,72.89
2018-08-10T07:11:19.711Z,73.55
2018-08-10T07:13:48.567Z,72.69
2018-08-10T07:16:17.425Z,72.17
2018-08-10T07:18:46.283Z,71.11
2018-08-10T07:21:15.201Z,71.43
2018-08-10T07:23:44.230Z,71.32
2018-08-10T07:27:19.956Z,71.82
2018-08-10T07:29:48.828Z,72.73
2018-08-10T07:32:17.720Z,73.06
2018-08-10T07:34:46.562Z,69.41
2018-08-10T07:37:15.400Z,64.12
2018-08-10T07:39:44.275Z,62.07
2018-08-10T07:42:13.117Z,58.72
2018-08-10T07:44:41.975Z,54.16
2018-08-10T07:47:10.903Z,50.56
2018-08-10T07:49:42.595Z,50.25
2018-08-10T07:52:11.493Z,48.48
2018-08-10T07:54:40.403Z,44.71
2018-08-10T07:57:12.256Z,42.52
2018-08-10T07:59:41.092Z,41.03
2018-08-10T08:02:10.341Z,43.32
2018-08-10T08:04:39.242Z,41.00
2018-08-10T08:07:08.532Z,41.45
2018-08-10T08:09:37.318Z,36.97
2018-08-10T08:12:06.167Z,36.39
2018-08-10T08:14:34.999Z,34.57
2018-08-10T08:17:03.877Z,34.30
2018-08-10T08:19:32.797Z,35.02
2018-08-10T08:22:05.390Z,33.01
2018-08-10T08:24:34.247Z,33.54
2018-08-10T08:27:03.109Z,34.13
2018-08-10T08:29:32.024Z,31.72
2018-08-10T08:32:01.178Z,33.03
2018-08-10T08:34:30.038Z,36.96
2018-08-10T08:36:59.169Z,34.65
2018-08-10T08:40:15.907Z,35.41
2018-08-10T08:42:45.847Z,35.54
2018-08-10T08:46:09.673Z,31.40
2018-08-10T08:49:04.226Z,30.43
2018-08-10T08:51:33.136Z,31.86
2018-08-10T08:54:58.924Z,32.13
2018-08-10T08:57:27.759Z,32.20
2018-08-10T08:59:56.601Z,31.87
2018-08-10T09:02:25.424Z,32.31
2018-08-10T09:05:08.026Z,30.48
2018-08-10T09:07:37.054Z,29.59
2018-08-10T09:10:14.155Z,28.55
2018-08-10T09:12:42.985Z,30.83
2018-08-10T09:15:13.545Z,28.58
2018-08-10T09:17:42.645Z,28.57
2018-08-10T09:20:11.803Z,27.55
2018-08-10T09:22:40.606Z,25.94
2018-08-10T09:25:16.779Z,26.81
2018-08-10T09:27:45.633Z,27.82
2018-08-10T09:30:18.564Z,27.12
2018-08-10T09:32:47.525Z,26.57
2018-08-10T09:35:16.373Z,27.05
2018-08-10T09:37:45.213Z,27.59
2018-08-10T09:40:18.128Z,26.86
2018-08-10T09:42:47.242Z,27.94
2018-08-10T09:45:16.675Z,28.65
2018-08-10T09:47:46.651Z,26.93
2018-08-10T09:50:16.118Z,25.98
2018-08-10T09:53:01.761Z,27.21
2018-08-10T09:55:39.174Z,28.57
2018-08-10T09:58:18.722Z,27.49
2018-08-10T10:01:05.864Z,28.56
2018-08-10T10:03:34.744Z,30.13
2018-08-10T10:06:03.626Z,29.04
2018-08-10T10:08:32.505Z,30.38
2018-08-10T10:11:01.440Z,33.12
2018-08-10T10:13:30.410Z,31.66
2018-08-10T10:15:59.288Z,33.89
2018-08-10T10:18:28.120Z,32.12
2018-08-10T10:20:56.987Z,32.08
2018-08-10T10:23:25.842Z,31.15
2018-08-10T10:25:54.688Z,30.83
2018-08-10T10:28:23.600Z,26.07
2018-08-10T10:30:52.426Z,26.19
2018-08-10T10:33:21.541Z,27.77
2018-08-10T10:35:50.427Z,26.62
2018-08-10T10:38:19.325Z,31.73
2018-08-10T10:40:48.169Z,33.86
2018-08-10T10:43:17.027Z,35.25
2018-08-10T10:45:45.859Z,37.41
2018-08-10T10:48:14.695Z,38.49
2018-08-10T10:50:43.588Z,44.08
2018-08-10T10:53:12.439Z,42.89
2018-08-10T10:55:41.328Z,43.02
2018-08-10T10:58:16.347Z,40.95
2018-08-10T11:00:45.166Z,40.62
2018-08-10T11:03:14.106Z,40.52
2018-08-10T11:05:42.929Z,42.07
2018-08-10T11:08:11.809Z,43.61
2018-08-10T11:10:40.635Z,47.59
2018-08-10T11:13:09.501Z,47.34
2018-08-10T11:15:38.754Z,49.16
2018-08-10T11:18:07.698Z,48.54
2018-08-10T11:20:39.554Z,46.12
2018-08-10T11:23:08.407Z,41.57
2018-08-10T11:25:37.239Z,41.71
2018-08-10T11:28:06.324Z,41.81
2018-08-10T11:30:35.149Z,40.40
2018-08-10T11:33:03.999Z,37.85
2018-08-10T11:35:32.819Z,35.48
2018-08-10T11:38:01.679Z,33.44
2018-08-10T11:40:30.528Z,32.63
2018-08-10T11:42:59.388Z,30.12
2018-08-10T11:45:28.227Z,31.70
2018-08-10T11:47:57.068Z,33.31
2018-08-10T11:50:25.949Z,34.88
2018-08-10T11:52:54.808Z,34.91
2018-08-10T11:55:23.631Z,34.63
2018-08-10T11:57:52.491Z,36.19
2018-08-10T12:00:21.374Z,35.99
2018-08-10T12:02:50.227Z,35.46
2018-08-10T12:05:19.551Z,35.60
2018-08-10T12:07:48.387Z,35.45
2018-08-10T12:10:17.279Z,33.30
2018-08-10T12:12:46.195Z,33.06
2018-08-10T12:15:15.037Z,33.96
2018-08-10T12:17:43.897Z,35.01
2018-08-10T12:20:13.194Z,33.36
2018-08-10T12:22:42.508Z,33.57
2018-08-10T12:25:11.561Z,33.86
2018-08-10T12:27:40.442Z,34.21
2018-08-10T12:30:10.954Z,34.41
2018-08-10T12:32:39.881Z,33.99
2018-08-10T12:35:09.548Z,34.53
2018-08-10T12:37:38.450Z,34.19
2018-08-10T12:40:07.722Z,34.13
2018-08-10T12:42:36.560Z,33.10
2018-08-10T12:45:05.603Z,33.36
2018-08-10T12:47:52.006Z,33.45
2018-08-10T12:50:21.453Z,33.15
2018-08-10T12:52:50.154Z,33.86
2018-08-10T12:55:19.022Z,33.21
2018-08-10T12:57:47.894Z,32.91
2018-08-10T13:00:16.748Z,33.02
2018-08-10T13:02:45.848Z,32.92
2018-08-10T13:05:14.439Z,33.36
2018-08-10T13:07:43.284Z,33.52
2018-08-10T13:10:12.831Z,34.44
2018-08-10T13:12:41.685Z,36.08
2018-08-10T13:15:11.912Z,37.54
2018-08-10T13:17:40.753Z,39.85
2018-08-10T13:20:11.489Z,40.99
2018-08-10T13:22:40.317Z,43.40
2018-08-10T13:25:09.965Z,44.58
2018-08-10T13:27:38.804Z,44.77
2018-08-10T13:30:09.493Z,44.23
2018-08-10T13:32:38.325Z,44.44
2018-08-10T13:35:07.609Z,43.39
2018-08-10T13:37:36.473Z,42.87
2018-08-10T13:40:05.597Z,41.23
2018-08-10T13:42:34.475Z,40.31
2018-08-10T13:45:03.344Z,39.20
2018-08-10T13:47:32.210Z,39.48
2018-08-10T13:50:02.242Z,39.41
2018-08-10T13:52:30.905Z,39.92
2018-08-10T13:54:59.750Z,39.80
2018-08-10T13:57:28.604Z,39.76
2018-08-10T13:59:57.591Z,39.75
2018-08-10T14:02:26.487Z,39.38
2018-08-10T14:04:55.437Z,38.78
2018-08-10T14:07:24.278Z,38.04
2018-08-10T14:09:53.130Z,38.45
2018-08-10T14:12:25.028Z,38.91
2018-08-10T14:14:53.921Z,37.07
2018-08-10T14:17:22.784Z,37.67
2018-08-10T14:19:51.666Z,37.49
2018-08-10T14:22:20.532Z,38.28
2018-08-10T14:24:49.394Z,38.42
2018-08-10T14:27:18.278Z,37.66
2018-08-10T14:29:47.129Z,36.81
2018-08-10T14:32:15.989Z,37.21
2018-08-10T14:34:44.960Z,36.40
2018-08-10T14:37:13.899Z,34.85
2018-08-10T14:39:42.773Z,34.99
2018-08-10T14:42:11.654Z,35.13
2018-08-10T14:44:40.525Z,35.46
2018-08-10T14:47:09.490Z,36.19
2018-08-10T14:49:38.371Z,35.35
2018-08-10T14:52:07.261Z,33.85
2018-08-10T14:54:36.146Z,33.30
2018-08-10T14:57:05.046Z,33.06
2018-08-10T14:59:33.988Z,33.19
2018-08-10T15:02:02.932Z,34.21
2018-08-10T15:04:31.826Z,33.90
2018-08-10T15:07:00.688Z,35.06
2018-08-10T15:10:24.387Z,34.61
2018-08-10T15:12:53.782Z,34.09
2018-08-10T15:15:22.274Z,33.27
2018-08-10T15:17:51.145Z,31.64
2018-08-10T15:20:20.872Z,30.15
2018-08-10T15:22:49.778Z,30.34
2018-08-10T15:25:18.645Z,29.97
2018-08-10T15:27:47.493Z,29.96
2018-08-10T15:30:19.866Z,29.86
2018-08-10T15:32:49.003Z,30.06
2018-08-10T15:35:18.375Z,30.83
2018-08-10T15:37:47.481Z,30.83
2018-08-10T15:40:18.301Z,31.13
2018-08-10T15:42:47.703Z,30.95
2018-08-10T15:45:18.292Z,31.45
2018-08-10T15:47:48.303Z,31.66
2018-08-10T15:50:17.816Z,32.12
2018-08-10T15:52:47.424Z,32.55
2018-08-10T15:55:17.021Z,32.77
2018-08-10T15:57:46.446Z,32.19
2018-08-10T16:00:24.716Z,32.92
2018-08-10T16:02:54.458Z,33.04
2018-08-10T16:05:24.612Z,32.62
2018-08-10T16:07:54.389Z,32.60
2018-08-10T16:10:24.054Z,33.80
2018-08-10T16:12:55.139Z,34.70
2018-08-10T16:15:24.731Z,34.82
2018-08-10T16:17:54.640Z,35.57
2018-08-10T16:20:24.160Z,35.34
2018-08-10T16:22:53.895Z,34.81
2018-08-10T16:25:23.694Z,34.87
2018-08-10T16:27:54.355Z,34.49
2018-08-10T16:30:41.009Z,34.88
2018-08-10T16:33:09.969Z,34.98
2018-08-10T16:35:38.798Z,35.10
2018-08-10T16:38:07.709Z,34.69
2018-08-10T16:40:36.555Z,34.41
2018-08-10T16:43:05.418Z,34.75
2018-08-10T16:45:34.276Z,34.73
2018-08-10T16:48:03.128Z,34.98
2018-08-10T16:50:32.051Z,34.95
2018-08-10T16:53:18.488Z,34.25
2018-08-10T16:55:47.399Z,35.76
2018-08-10T16:58:16.297Z,35.90
2018-08-10T17:00:45.083Z,36.05
2018-08-10T17:03:13.982Z,36.75
2018-08-10T17:05:42.836Z,36.88
2018-08-10T17:08:11.662Z,37.05
2018-08-10T17:10:40.533Z,36.98
2018-08-10T17:13:09.438Z,36.98
2018-08-10T17:15:38.419Z,36.75
2018-08-10T17:18:07.262Z,35.33
2018-08-10T17:20:36.144Z,35.90
2018-08-10T17:23:04.963Z,36.01
2018-08-10T17:25:33.913Z,36.51
2018-08-10T17:28:02.767Z,36.18
2018-08-10T17:30:31.643Z,36.32
2018-08-10T17:33:00.463Z,36.97
2018-08-10T17:35:29.332Z,37.50
2018-08-10T17:37:58.263Z,37.49
2018-08-10T17:40:27.110Z,37.51
2018-08-10T17:42:55.959Z,37.36
2018-08-10T17:45:24.942Z,37.68
2018-08-10T17:47:53.798Z,38.30
2018-08-10T17:50:22.679Z,37.95
2018-08-10T17:52:54.992Z,37.21
2018-08-10T17:55:24.206Z,37.38
2018-08-10T17:57:53.086Z,37.55
2018-08-10T18:00:24.866Z,37.61
2018-08-10T18:02:53.873Z,37.43
2018-08-10T18:05:22.708Z,37.56
2018-08-10T18:07:51.564Z,37.06
2018-08-10T18:10:20.509Z,37.31
2018-08-10T18:12:49.463Z,37.25
2018-08-10T18:15:19.536Z,37.42
2018-08-10T18:17:48.755Z,37.53
2018-08-10T18:20:19.247Z,36.79
2018-08-10T18:22:49.398Z,36.66
2018-08-10T18:25:19.435Z,36.13
2018-08-10T18:27:48.341Z,36.65
2018-08-10T18:30:22.454Z,35.79
2018-08-10T18:32:51.279Z,35.87
2018-08-10T18:35:23.255Z,36.22
2018-08-10T18:37:52.778Z,35.82
2018-08-10T18:40:21.960Z,35.69
2018-08-10T18:42:51.083Z,35.40
2018-08-10T18:45:21.028Z,35.77
2018-08-10T18:47:49.882Z,35.39
2018-08-10T18:50:19.511Z,35.76
2018-08-10T18:52:48.380Z,35.90
2018-08-10T18:55:18.819Z,35.68
2018-08-10T18:57:47.755Z,35.37
2018-08-10T19:00:18.257Z,35.40
2018-08-10T19:02:47.320Z,35.43
2018-08-10T19:05:17.071Z,35.48
2018-08-10T19:07:46.612Z,35.40
2018-08-10T19:10:20.954Z,35.17
2018-08-10T19:12:49.866Z,35.46
2018-08-10T19:15:18.707Z,37.43
2018-08-10T19:17:47.648Z,39.00
2018-08-10T19:20:16.824Z,39.86
2018-08-10T19:22:46.233Z,39.03
2018-08-10T19:25:15.826Z,39.86
2018-08-10T19:27:44.574Z,39.30
2018-08-10T19:30:16.055Z,39.61
2018-08-10T19:32:46.008Z,38.42
2018-08-10T19:35:15.104Z,38.27
2018-08-10T19:37:43.988Z,38.66
2018-08-10T19:40:14.308Z,38.43
2018-08-10T19:42:43.185Z,38.06
2018-08-10T19:45:12.909Z,38.01
2018-08-10T19:47:41.835Z,38.40
2018-08-10T19:50:12.086Z,38.29
2018-08-10T19:52:40.920Z,38.30
2018-08-10T19:55:11.480Z,38.30
2018-08-10T19:57:40.588Z,38.51
2018-08-10T20:00:11.160Z,38.51
2018-08-10T20:02:40.451Z,40.93
2018-08-10T20:05:09.906Z,43.07
2018-08-10T20:07:38.945Z,43.79
2018-08-10T20:10:08.581Z,44.14
2018-08-10T20:12:37.740Z,45.03
2018-08-10T20:15:08.934Z,44.79
2018-08-10T20:17:37.800Z,45.01
2018-08-10T20:20:07.103Z,45.81
2018-08-10T20:22:35.960Z,47.48
2018-08-10T20:25:05.628Z,49.55
2018-08-10T20:27:34.923Z,49.17
2018-08-10T20:30:05.042Z,49.98
2018-08-10T20:32:33.861Z,49.54
2018-08-10T20:35:02.766Z,49.70
2018-08-10T20:37:31.581Z,50.95
2018-08-10T20:40:00.547Z,51.38
2018-08-10T20:42:29.402Z,51.24
2018-08-10T20:44:58.308Z,51.85
2018-08-10T20:47:27.283Z,51.76
2018-08-10T20:49:56.164Z,52.32
2018-08-10T20:52:25.004Z,52.31
2018-08-10T20:54:53.867Z,52.78
2018-08-10T20:57:22.874Z,52.81
2018-08-10T20:59:51.962Z,52.79
2018-08-10T21:02:20.867Z,53.40
2018-08-10T21:04:49.753Z,53.44
2018-08-10T21:07:18.649Z,54.08
2018-08-10T21:09:47.502Z,54.89
2018-08-10T21:12:16.378Z,56.15
2018-08-10T21:14:45.224Z,56.99
2018-08-10T21:17:14.122Z,57.42
2018-08-10T21:19:42.991Z,57.80
2018-08-10T21:22:12.089Z,58.57
2018-08-10T21:24:40.999Z,58.88
2018-08-10T21:27:10.008Z,59.57
2018-08-10T21:29:38.965Z,59.78
2018-08-10T21:32:08.143Z,59.38
2018-08-10T21:34:37.029Z,59.69
2018-08-10T21:37:06.054Z,59.40
2018-08-10T21:39:34.935Z,59.55
2018-08-10T21:42:03.954Z,59.01
2018-08-10T21:44:32.847Z,59.29
2018-08-10T21:47:01.717Z,59.45
2018-08-10T21:49:30.616Z,59.45
2018-08-10T21:51:59.484Z,58.57
2018-08-10T21:54:28.503Z,59.61
2018-08-10T21:56:57.356Z,59.41
2018-08-10T21:59:26.291Z,59.23
2018-08-10T22:01:55.171Z,60.54
2018-08-10T22:04:24.044Z,60.96
2018-08-10T22:06:52.908Z,61.78
2018-08-10T22:09:22.012Z,62.46
2018-08-10T22:11:50.869Z,63.93
2018-08-10T22:14:37.613Z,65.42
2018-08-10T22:17:24.645Z,67.37
2018-08-10T22:19:57.076Z,69.23
2018-08-10T22:22:26.348Z,72.03
2018-08-10T22:24:55.230Z,72.23
2018-08-10T22:27:24.091Z,74.23
2018-08-10T22:29:59.109Z,74.68
2018-08-10T22:32:27.977Z,75.45
2018-08-10T22:34:57.025Z,76.01
2018-08-10T22:37:25.897Z,76.40
2018-08-10T22:39:54.783Z,76.67
2018-08-10T22:42:23.676Z,77.36
2018-08-10T22:44:52.544Z,77.49
2018-08-10T22:47:21.410Z,77.48
2018-08-10T22:49:50.330Z,77.94
2018-08-10T22:52:22.317Z,78.80
2018-08-10T22:54:51.187Z,78.87
2018-08-10T22:57:20.089Z,79.07
2018-08-10T22:59:48.930Z,79.63
2018-08-10T23:02:17.849Z,79.79
2018-08-10T23:04:46.722Z,79.94
2018-08-10T23:07:15.574Z,79.93
2018-08-10T23:09:44.397Z,80.60
2018-08-10T23:12:13.257Z,80.86
2018-08-10T23:14:42.357Z,80.34
2018-08-10T23:17:11.117Z,80.53
2018-08-10T23:19:39.967Z,80.90
2018-08-10T23:22:08.822Z,81.12
2018-08-10T23:24:37.677Z,81.57
2018-08-10T23:27:06.542Z,81.81
2018-08-10T23:29:35.424Z,79.78
2018-08-10T23:32:04.256Z,78.62
2018-08-10T23:34:33.125Z,77.68
2018-08-10T23:37:02.194Z,76.75
2018-08-10T23:39:31.045Z,76.88
2018-08-10T23:41:59.890Z,76.97
2018-08-10T23:44:28.726Z,75.83
2018-08-10T23:46:57.551Z,75.75
2018-08-10T23:49:26.442Z,75.11
2018-08-10T23:51:55.322Z,75.89
2018-08-10T23:54:24.278Z,75.37
2018-08-10T23:56:53.143Z,75.50
2018-08-10T23:59:22.035Z,75.36
